Time;durP1;ratioP1;P1;durP2;ratioP2;P2;SDS_P1;SDS_P2;PMS_P1;PMS_P2;Temp;Humidity;BMP_temperature;BMP_pressure;BME280_temperature;BME280_humidity;BME280_pressure;Samples;Min_cycle;Max_cycle;Signal;HPM_P1;HPM_P2
2021/01/05 00:00:34;;;;;;;10.50;6.60;;;2.70;93.40;;;;;;4975678;28;20043;-91
2021/01/05 00:02:59;;;;;;;9.63;6.70;;;2.70;93.40;;;;;;4987331;28;20054;-90
2021/01/05 00:05:25;;;;;;;9.77;6.07;;;2.70;93.40;;;;;;4992045;28;20030;-90
2021/01/05 00:07:51;;;;;;;10.05;7.10;;;2.70;93.40;;;;;;4990583;28;20038;-91
2021/01/05 00:10:18;;;;;;;10.60;7.20;;;2.70;93.40;;;;;;4986203;28;20415;-90
2021/01/05 00:12:44;;;;;;;9.93;6.75;;;2.70;93.40;;;;;;4975458;28;20077;-90
2021/01/05 00:15:12;;;;;;;10.35;6.82;;;2.70;93.40;;;;;;4974754;28;20023;-90
2021/01/05 00:17:37;;;;;;;12.15;7.78;;;2.70;93.40;;;;;;4978733;28;20035;-90
2021/01/05 00:20:19;;;;;;;10.88;7.18;;;2.70;93.40;;;;;;5007741;28;20042;-90
2021/01/05 00:22:45;;;;;;;11.32;7.18;;;2.70;93.40;;;;;;4988494;28;20059;-90
2021/01/05 00:25:13;;;;;;;12.60;7.60;;;2.70;93.40;;;;;;4965099;28;20034;-90
2021/01/05 00:27:39;;;;;;;11.85;7.65;;;2.60;93.30;;;;;;4985317;28;20023;-89
2021/01/05 00:30:17;;;;;;;12.18;7.68;;;2.60;93.40;;;;;;4978074;28;20057;-90
2021/01/05 00:32:45;;;;;;;11.13;7.65;;;2.70;93.40;;;;;;5008848;28;20037;-90
2021/01/05 00:35:13;;;;;;;13.27;8.48;;;2.60;93.40;;;;;;4983595;28;20018;-91
2021/01/05 00:37:39;;;;;;;11.80;6.68;;;2.70;93.40;;;;;;4975873;28;20035;-91
2021/01/05 00:40:06;;;;;;;13.63;8.23;;;2.60;93.40;;;;;;4971198;28;20531;-90
2021/01/05 00:42:32;;;;;;;11.23;6.95;;;2.60;93.40;;;;;;4980740;28;20062;-90
2021/01/05 00:44:57;;;;;;;13.25;8.48;;;2.60;93.40;;;;;;4980568;28;20050;-90
2021/01/05 00:47:23;;;;;;;12.98;8.63;;;2.60;93.40;;;;;;4980078;28;20455;-90
2021/01/05 00:49:48;;;;;;;13.93;8.50;;;2.60;93.30;;;;;;4989218;28;20054;-89
2021/01/05 00:52:14;;;;;;;13.13;8.55;;;2.60;93.30;;;;;;4973455;28;20031;-90
2021/01/05 00:54:39;;;;;;;12.43;7.70;;;2.60;93.30;;;;;;4984636;28;20372;-91
2021/01/05 00:57:09;;;;;;;13.10;8.40;;;2.60;93.30;;;;;;4975205;28;20050;-90
2021/01/05 00:59:35;;;;;;;13.57;8.63;;;2.60;93.30;;;;;;4969416;28;20170;-90
2021/01/05 01:02:00;;;;;;;12.70;7.60;;;2.60;93.30;;;;;;4980515;28;20034;-91
2021/01/05 01:04:27;;;;;;;14.75;8.30;;;2.60;93.30;;;;;;5023610;28;20050;-90
2021/01/05 01:06:53;;;;;;;13.85;8.57;;;2.60;93.30;;;;;;4975236;28;20050;-91
2021/01/05 01:09:19;;;;;;;13.10;8.05;;;2.60;93.30;;;;;;4987396;28;20027;-91
2021/01/05 01:12:11;;;;;;;15.00;9.32;;;2.60;93.30;;;;;;5007269;28;20462;-90
2021/01/05 01:14:36;;;;;;;15.07;9.35;;;2.60;93.30;;;;;;4976290;28;20039;-91
2021/01/05 01:17:02;;;;;;;14.20;8.48;;;2.60;93.30;;;;;;4976156;28;20407;-90
2021/01/05 01:19:27;;;;;;;13.27;7.63;;;2.60;93.30;;;;;;4984863;28;20030;-90
2021/01/05 01:21:54;;;;;;;14.57;9.35;;;2.60;93.20;;;;;;5006449;28;20030;-89
2021/01/05 01:24:22;;;;;;;14.93;8.80;;;2.60;93.20;;;;;;5017990;28;20053;-90
2021/01/05 01:26:47;;;;;;;13.07;8.68;;;2.60;93.20;;;;;;4973698;28;20029;-90
2021/01/05 01:29:18;;;;;;;14.93;9.20;;;2.60;93.20;;;;;;5007568;28;20027;-90
2021/01/05 01:31:43;;;;;;;16.10;9.30;;;2.60;93.20;;;;;;4974632;28;20037;-91
2021/01/05 01:34:10;;;;;;;15.23;8.95;;;2.60;93.20;;;;;;4981973;28;20458;-90
2021/01/05 01:36:36;;;;;;;14.48;9.05;;;2.60;93.20;;;;;;4972897;28;20199;-90
2021/01/05 01:39:02;;;;;;;14.85;9.13;;;2.60;93.20;;;;;;4997547;28;20093;-90
2021/01/05 01:41:27;;;;;;;18.45;10.00;;;2.60;93.20;;;;;;4988381;28;20470;-90
2021/01/05 01:43:53;;;;;;;14.50;9.57;;;2.60;93.20;;;;;;4969319;28;20023;-90
2021/01/05 01:46:18;;;;;;;18.10;10.27;;;2.60;93.20;;;;;;4974539;28;20030;-89
2021/01/05 01:48:44;;;;;;;15.20;9.45;;;2.60;93.20;;;;;;4960114;28;20479;-90
2021/01/05 01:51:12;;;;;;;16.05;9.43;;;2.60;93.20;;;;;;4983806;28;20110;-90
2021/01/05 01:53:45;;;;;;;13.95;9.02;;;2.60;93.50;;;;;;4973722;28;20027;-90
2021/01/05 01:56:34;;;;;;;15.32;8.75;;;2.60;93.50;;;;;;4978237;28;20514;-90
2021/01/05 01:59:04;;;;;;;16.23;9.68;;;2.60;93.30;;;;;;4974395;28;20121;-89
2021/01/05 02:01:46;;;;;;;16.50;9.35;;;2.60;93.30;;;;;;4975678;28;20059;-90
2021/01/05 02:04:45;;;;;;;16.92;10.20;;;2.50;93.30;;;;;;4975853;28;20042;-90
2021/01/05 02:07:23;;;;;;;17.25;9.77;;;2.60;93.30;;;;;;5014629;28;20042;-89
2021/01/05 02:10:06;;;;;;;18.70;10.93;;;2.50;93.30;;;;;;4974365;28;20037;-88
2021/01/05 02:12:36;;;;;;;;;;;2.60;93.40;;;;;;4989841;28;20031;-89
2021/01/05 02:15:40;;;;;;;16.13;9.65;;;2.50;93.40;;;;;;4973540;28;19914;-90
2021/01/05 02:18:18;;;;;;;15.75;9.30;;;2.50;93.40;;;;;;4973217;28;20046;-90
2021/01/05 02:20:50;;;;;;;16.75;10.02;;;2.50;93.40;;;;;;4978691;28;20030;-90
2021/01/05 02:23:40;;;;;;;16.98;9.05;;;2.50;93.40;;;;;;4986507;28;20031;-89
2021/01/05 02:26:31;;;;;;;15.48;9.60;;;2.60;93.50;;;;;;4979278;28;20062;-90
2021/01/05 02:29:03;;;;;;;17.75;9.48;;;2.50;93.40;;;;;;5006067;28;20031;-90
2021/01/05 02:32:05;;;;;;;15.40;9.23;;;2.50;93.40;;;;;;5005888;28;20027;-91
2021/01/05 02:34:59;;;;;;;16.87;9.73;;;2.60;93.40;;;;;;4978222;28;20492;-90
2021/01/05 02:37:46;;;;;;;16.30;9.55;;;2.60;93.40;;;;;;5004595;28;20031;-90
2021/01/05 02:40:38;;;;;;;13.75;8.48;;;2.60;93.40;;;;;;4986397;28;20479;-90
2021/01/05 02:43:44;;;;;;;14.75;8.68;;;2.60;93.40;;;;;;4972465;28;20410;-90
2021/01/05 02:46:47;;;;;;;14.90;8.65;;;2.60;93.40;;;;;;4985343;28;20047;-91
2021/01/05 02:49:30;;;;;;;16.17;9.75;;;2.60;93.40;;;;;;4977198;28;20085;-91
2021/01/05 02:52:14;;;;;;;14.80;8.50;;;2.60;93.30;;;;;;4973756;28;20038;-91
2021/01/05 02:55:17;;;;;;;13.10;7.78;;;2.60;93.30;;;;;;5016478;28;20050;-91
2021/01/05 02:58:12;;;;;;;13.90;8.32;;;2.60;93.20;;;;;;5003276;28;20164;-90
2021/01/05 03:01:06;;;;;;;13.32;8.13;;;2.60;93.20;;;;;;4989266;28;20149;-91
2021/01/05 03:03:39;;;;;;;12.65;8.05;;;2.60;93.10;;;;;;4968114;28;20105;-90
2021/01/05 03:06:21;;;;;;;11.95;7.03;;;2.60;93.10;;;;;;4989859;28;20031;-91
2021/01/05 03:08:57;;;;;;;13.52;8.05;;;2.60;93.10;;;;;;4976924;28;20035;-91
2021/01/05 03:11:33;;;;;;;14.00;7.80;;;2.60;93.10;;;;;;4987916;28;20030;-91
2021/01/05 03:14:07;;;;;;;13.05;8.23;;;2.70;93.10;;;;;;4984436;28;20111;-91
2021/01/05 03:16:36;;;;;;;16.77;9.80;;;2.60;93.10;;;;;;4973647;28;20199;-91
2021/01/05 03:19:16;;;;;;;16.08;8.98;;;2.70;93.10;;;;;;5002261;28;20033;-91
2021/01/05 03:21:48;;;;;;;18.17;9.90;;;2.70;93.00;;;;;;4977420;28;20436;-91
2021/01/05 03:24:15;;;;;;;17.88;9.80;;;2.70;93.00;;;;;;4977100;28;20031;-92
2021/01/05 03:26:44;;;;;;;15.63;8.55;;;2.70;93.10;;;;;;4977755;28;20041;-90
2021/01/05 03:29:14;;;;;;;15.73;9.10;;;2.70;93.10;;;;;;4976848;28;20033;-92
2021/01/05 03:31:53;;;;;;;17.25;9.52;;;2.70;93.10;;;;;;4975601;28;20026;-91
2021/01/05 03:34:19;;;;;;;15.30;8.38;;;2.70;93.00;;;;;;4971923;28;20031;-91
2021/01/05 03:36:45;;;;;;;15.65;9.27;;;2.70;93.00;;;;;;4975640;28;20042;-91
2021/01/05 03:39:11;;;;;;;15.63;8.93;;;2.70;93.00;;;;;;4986180;28;20376;-91
2021/01/05 03:41:36;;;;;;;16.58;9.80;;;2.70;93.00;;;;;;4972371;28;20527;-91
2021/01/05 03:44:03;;;;;;;17.23;10.38;;;2.70;93.00;;;;;;4970535;28;20050;-91
2021/01/05 03:46:29;;;;;;;18.63;11.05;;;2.70;93.00;;;;;;4972109;28;20027;-91
2021/01/05 03:48:56;;;;;;;16.17;9.80;;;2.70;93.00;;;;;;5015224;28;20033;-91
2021/01/05 03:51:22;;;;;;;19.67;10.90;;;2.70;93.00;;;;;;4978210;28;20069;-91
2021/01/05 03:53:47;;;;;;;17.92;11.07;;;2.70;93.00;;;;;;4986210;28;20045;-90
2021/01/05 03:56:13;;;;;;;15.93;9.88;;;2.70;93.00;;;;;;5017537;28;20160;-90
2021/01/05 03:58:38;;;;;;;19.35;11.15;;;2.70;93.00;;;;;;4989786;28;20030;-90
2021/01/05 04:01:04;;;;;;;20.90;11.57;;;2.70;93.00;;;;;;4972813;28;20098;-91
2021/01/05 04:03:30;;;;;;;17.08;9.55;;;2.70;93.00;;;;;;4975902;28;20027;-92
2021/01/05 04:05:55;;;;;;;18.77;10.77;;;2.70;93.00;;;;;;4977325;28;20118;-91
2021/01/05 04:08:21;;;;;;;19.13;12.07;;;2.70;93.10;;;;;;4974534;28;20035;-90
2021/01/05 04:10:47;;;;;;;17.90;11.05;;;2.70;93.00;;;;;;4974150;28;20034;-91
2021/01/05 04:13:12;;;;;;;20.42;11.73;;;2.70;93.00;;;;;;5008141;28;20038;-91
2021/01/05 04:15:38;;;;;;;19.92;11.07;;;2.70;93.00;;;;;;4974689;28;20045;-92
2021/01/05 04:18:04;;;;;;;18.58;10.50;;;2.70;93.00;;;;;;4992096;28;20030;-91
2021/01/05 04:20:31;;;;;;;19.95;12.13;;;2.70;93.00;;;;;;4982449;28;20125;-90
2021/01/05 04:22:58;;;;;;;23.42;13.27;;;2.70;93.00;;;;;;4979329;28;20026;-91
2021/01/05 04:25:24;;;;;;;22.55;12.32;;;2.70;93.00;;;;;;4977247;28;20061;-91
2021/01/05 04:27:51;;;;;;;19.75;12.05;;;2.70;93.00;;;;;;4978447;28;20116;-90
2021/01/05 04:30:26;;;;;;;21.35;11.73;;;2.70;93.00;;;;;;4977863;28;20030;-90
2021/01/05 04:32:53;;;;;;;21.52;12.45;;;2.70;93.00;;;;;;4974162;28;20039;-91
2021/01/05 04:35:21;;;;;;;20.65;12.52;;;2.70;93.00;;;;;;4981588;28;20029;-91
2021/01/05 04:37:47;;;;;;;22.20;11.00;;;2.70;93.10;;;;;;4983050;28;20161;-90
2021/01/05 04:40:23;;;;;;;20.08;12.10;;;2.70;93.00;;;;;;4988003;28;20026;-91
2021/01/05 04:42:58;;;;;;;21.00;12.18;;;2.70;93.00;;;;;;4990714;28;20058;-90
2021/01/05 04:45:23;;;;;;;26.10;12.95;;;2.70;93.00;;;;;;4967892;28;20027;-90
2021/01/05 04:48:12;;;;;;;20.52;12.05;;;2.70;93.10;;;;;;5023425;28;20145;-90
2021/01/05 04:50:52;;;;;;;22.60;12.07;;;2.70;93.10;;;;;;5005846;28;20030;-91
2021/01/05 04:53:24;;;;;;;20.45;12.60;;;2.70;93.10;;;;;;4984680;28;20027;-90
2021/01/05 04:56:10;;;;;;;24.75;13.25;;;2.70;93.20;;;;;;4974779;28;20039;-90
2021/01/05 04:58:57;;;;;;;21.40;12.73;;;2.70;93.10;;;;;;4979439;28;20035;-91
2021/01/05 05:01:32;;;;;;;21.30;11.93;;;2.70;93.20;;;;;;4990335;28;20051;-91
2021/01/05 05:04:30;;;;;;;21.75;12.25;;;2.70;93.20;;;;;;4974579;28;20030;-91
2021/01/05 05:07:26;;;;;;;22.73;12.40;;;2.70;93.20;;;;;;4981223;28;20030;-90
2021/01/05 05:10:00;;;;;;;23.20;11.63;;;2.70;93.30;;;;;;4976328;28;20058;-90
2021/01/05 05:12:39;;;;;;;24.08;12.63;;;2.70;93.30;;;;;;4976660;28;20027;-90
2021/01/05 05:15:32;;;;;;;25.75;13.25;;;2.70;93.30;;;;;;4975483;28;20499;-91
2021/01/05 05:18:28;;;;;;;28.07;13.73;;;2.70;93.30;;;;;;4975312;28;20130;-90
2021/01/05 05:21:16;;;;;;;22.08;12.27;;;2.70;93.40;;;;;;5000689;28;20492;-91
2021/01/05 05:24:16;;;;;;;22.83;12.27;;;2.70;93.40;;;;;;4975591;28;20848;-90
2021/01/05 05:26:47;;;;;;;20.17;11.75;;;2.70;93.40;;;;;;4962164;28;20039;-90
2021/01/05 05:29:16;;;;;;;21.05;12.15;;;2.70;93.40;;;;;;4976418;28;20027;-90
2021/01/05 05:31:44;;;;;;;22.38;12.00;;;2.70;93.40;;;;;;4972978;28;20117;-90
2021/01/05 05:34:23;;;;;;;20.50;12.57;;;2.70;93.40;;;;;;4972087;28;20471;-89
2021/01/05 05:37:12;;;;;;;25.17;13.20;;;2.80;93.50;;;;;;4993741;28;20034;-90
2021/01/05 05:39:47;;;;;;;20.35;11.45;;;2.80;93.50;;;;;;4975401;28;20026;-90
2021/01/05 05:42:24;;;;;;;23.85;12.40;;;2.80;93.50;;;;;;4978997;28;20527;-88
2021/01/05 05:45:30;;;;;;;23.38;12.82;;;2.80;93.50;;;;;;4976992;28;20029;-90
2021/01/05 05:48:10;;;;;;;20.73;10.80;;;2.80;93.50;;;;;;4994991;28;20492;-90
2021/01/05 05:50:48;;;;;;;19.60;10.90;;;2.80;93.50;;;;;;4991986;28;20724;-90
2021/01/05 05:53:18;;;;;;;19.15;10.70;;;2.80;93.50;;;;;;4980333;28;21423;-89
2021/01/05 05:55:51;;;;;;;19.65;10.75;;;2.80;93.40;;;;;;4981240;28;20066;-89
2021/01/05 05:58:29;;;;;;;17.27;10.57;;;2.80;93.50;;;;;;4981397;28;20026;-89
2021/01/05 06:00:58;;;;;;;20.17;12.02;;;2.80;93.40;;;;;;4974301;28;20046;-90
2021/01/05 06:03:25;;;;;;;18.13;10.45;;;2.80;93.40;;;;;;4975177;28;20034;-90
2021/01/05 06:05:51;;;;;;;26.70;11.35;;;2.80;93.40;;;;;;4977504;28;20025;-90
2021/01/05 06:08:20;;;;;;;18.52;9.70;;;2.80;93.40;;;;;;4994713;28;20394;-90
2021/01/05 06:10:46;;;;;;;21.15;10.95;;;2.80;93.40;;;;;;4977050;28;20034;-90
2021/01/05 06:13:12;;;;;;;19.42;10.50;;;2.80;93.40;;;;;;4981950;28;20046;-90
2021/01/05 06:15:38;;;;;;;22.73;12.07;;;2.80;93.40;;;;;;4982422;28;20121;-91
2021/01/05 06:18:11;;;;;;;18.92;10.40;;;2.80;93.40;;;;;;4971451;28;20158;-89
2021/01/05 06:20:37;;;;;;;;;;;2.80;93.40;;;;;;4970406;28;20045;-90
2021/01/05 06:23:03;;;;;;;20.10;10.70;;;2.80;93.40;;;;;;4989458;28;19909;-89
2021/01/05 06:25:28;;;;;;;18.08;9.95;;;2.80;93.40;;;;;;4990672;28;20034;-89
2021/01/05 06:27:54;;;;;;;19.00;11.65;;;2.80;93.30;;;;;;4992833;28;20026;-91
2021/01/05 06:30:20;;;;;;;19.73;11.05;;;2.80;93.30;;;;;;4974608;28;20376;-91
2021/01/05 06:32:46;;;;;;;18.58;10.75;;;2.80;93.30;;;;;;4984427;28;20023;-90
2021/01/05 06:35:13;;;;;;;17.75;10.25;;;2.80;93.30;;;;;;4981176;28;20096;-90
2021/01/05 06:37:39;;;;;;;17.48;9.98;;;2.80;93.30;;;;;;4987090;28;20064;-90
2021/01/05 06:40:07;;;;;;;17.75;9.82;;;2.80;93.30;;;;;;4992256;28;20035;-89
2021/01/05 06:42:33;;;;;;;17.67;11.05;;;2.80;93.30;;;;;;4976436;28;20114;-90
2021/01/05 06:44:59;;;;;;;18.00;10.00;;;2.80;93.30;;;;;;4959102;28;20027;-90
2021/01/05 06:47:25;;;;;;;20.52;10.45;;;2.80;93.30;;;;;;4973575;28;20033;-90
2021/01/05 06:49:50;;;;;;;20.58;10.85;;;2.80;93.40;;;;;;4977580;28;20435;-89
2021/01/05 06:52:16;;;;;;;21.20;11.43;;;2.80;93.30;;;;;;4981682;28;20511;-90
2021/01/05 06:54:41;;;;;;;21.67;11.07;;;2.80;93.30;;;;;;4980635;28;20031;-90
2021/01/05 06:57:07;;;;;;;19.77;11.52;;;2.80;93.30;;;;;;4974932;28;20047;-90
2021/01/05 06:59:33;;;;;;;18.67;10.07;;;2.80;93.30;;;;;;4981029;28;20029;-90
2021/01/05 07:02:04;;;;;;;17.05;10.13;;;2.80;93.30;;;;;;4990731;28;20027;-91
2021/01/05 07:04:30;;;;;;;18.02;11.05;;;2.80;93.30;;;;;;4976488;28;20026;-91
2021/01/05 07:06:57;;;;;;;18.35;10.25;;;2.80;93.30;;;;;;4973517;28;20122;-91
2021/01/05 07:09:23;;;;;;;17.60;9.90;;;2.80;93.10;;;;;;4976150;28;20111;-91
2021/01/05 07:11:49;;;;;;;18.15;9.70;;;2.80;93.20;;;;;;4973217;28;20051;-91
2021/01/05 07:14:21;;;;;;;20.13;11.15;;;2.80;93.20;;;;;;4965244;28;20027;-91
2021/01/05 07:16:47;;;;;;;16.52;10.20;;;2.80;93.10;;;;;;4977072;28;20038;-92
2021/01/05 07:19:12;;;;;;;17.33;9.65;;;2.80;93.10;;;;;;4978187;28;20031;-91
2021/01/05 07:21:38;;;;;;;18.08;10.15;;;2.80;93.10;;;;;;4977236;28;20065;-92
2021/01/05 07:24:04;;;;;;;16.52;8.70;;;2.80;93.10;;;;;;4982743;28;20126;-91
2021/01/05 07:26:34;;;;;;;17.05;10.20;;;2.80;93.10;;;;;;4982775;28;20035;-91
2021/01/05 07:29:00;;;;;;;19.20;9.48;;;2.80;93.10;;;;;;4984565;28;20026;-91
2021/01/05 07:31:25;;;;;;;19.55;9.90;;;2.80;93.10;;;;;;4977975;28;20029;-89
2021/01/05 07:33:51;;;;;;;19.23;9.88;;;2.80;93.10;;;;;;5004082;28;21143;-90
2021/01/05 07:36:31;;;;;;;19.67;10.40;;;2.80;93.10;;;;;;4993060;28;20097;-92
2021/01/05 07:38:59;;;;;;;21.20;11.25;;;2.90;93.10;;;;;;4977782;28;20109;-91
2021/01/05 07:41:25;;;;;;;18.52;10.32;;;2.90;93.40;;;;;;4975401;28;20034;-90
2021/01/05 07:43:51;;;;;;;20.35;9.60;;;2.90;93.10;;;;;;4975494;28;20207;-91
2021/01/05 07:46:16;;;;;;;19.20;9.88;;;2.90;93.10;;;;;;4975852;28;20058;-91
2021/01/05 07:48:42;;;;;;;20.17;10.68;;;2.90;93.10;;;;;;4975739;28;20031;-91
2021/01/05 07:51:10;;;;;;;18.67;10.30;;;2.90;93.10;;;;;;4974495;28;20027;-92
2021/01/05 07:53:36;;;;;;;21.85;10.85;;;2.80;93.10;;;;;;4975787;28;20085;-92
2021/01/05 07:56:01;;;;;;;23.45;11.57;;;2.80;93.10;;;;;;4973508;28;20507;-91
2021/01/05 07:58:27;;;;;;;22.10;11.88;;;2.80;93.20;;;;;;4973799;28;20041;-90
2021/01/05 08:00:53;;;;;;;22.25;11.15;;;2.80;93.20;;;;;;4974153;28;20778;-93
2021/01/05 08:03:18;;;;;;;21.27;9.77;;;2.80;93.20;;;;;;5002909;28;20390;-93
2021/01/05 08:05:44;;;;;;;27.42;12.52;;;2.80;93.20;;;;;;4978720;28;20030;-91
2021/01/05 08:08:10;;;;;;;24.10;12.68;;;2.80;93.20;;;;;;5000224;28;20096;-93
2021/01/05 08:10:37;;;;;;;22.10;11.52;;;2.90;93.20;;;;;;4956801;29;20031;-92
2021/01/05 08:13:07;;;;;;;23.38;11.35;;;2.90;93.20;;;;;;4974035;28;20030;-92
2021/01/05 08:15:33;;;;;;;22.10;11.57;;;2.90;93.20;;;;;;4977321;28;20027;-92
2021/01/05 08:17:59;;;;;;;21.20;11.00;;;2.90;93.20;;;;;;4975185;28;20023;-92
2021/01/05 08:20:28;;;;;;;23.55;11.95;;;2.90;93.20;;;;;;4976922;28;20027;-90
2021/01/05 08:22:54;;;;;;;26.65;12.25;;;2.90;93.10;;;;;;4975009;28;20026;-92
2021/01/05 08:25:20;;;;;;;21.77;11.13;;;2.90;93.10;;;;;;4976568;28;20042;-92
2021/01/05 08:27:48;;;;;;;24.30;12.43;;;2.90;93.10;;;;;;4975846;28;20483;-92
2021/01/05 08:30:23;;;;;;;25.13;13.13;;;2.90;93.10;;;;;;4975426;28;20113;-92
2021/01/05 08:32:50;;;;;;;23.83;12.30;;;2.90;93.10;;;;;;4976690;28;20073;-91
2021/01/05 08:35:19;;;;;;;26.67;13.23;;;3.00;93.10;;;;;;4983646;28;20027;-90
2021/01/05 08:37:45;;;;;;;26.33;12.52;;;3.00;93.20;;;;;;4976720;28;20552;-91
2021/01/05 08:40:20;;;;;;;23.00;12.43;;;3.00;93.20;;;;;;4976288;28;20023;-92
2021/01/05 08:42:46;;;;;;;24.00;12.63;;;3.00;93.10;;;;;;4979739;28;20064;-90
2021/01/05 08:45:12;;;;;;;23.73;12.23;;;3.00;93.10;;;;;;4995673;28;20023;-91
2021/01/05 08:47:38;;;;;;;24.00;12.88;;;3.00;93.10;;;;;;4973589;28;20031;-90
2021/01/05 08:50:06;;;;;;;27.08;13.27;;;3.00;93.10;;;;;;4975122;28;20087;-90
2021/01/05 08:52:32;;;;;;;21.63;11.68;;;3.00;93.20;;;;;;4976780;28;20034;-89
2021/01/05 08:54:57;;;;;;;22.77;11.98;;;3.00;93.20;;;;;;4979642;28;20475;-89
2021/01/05 08:57:23;;;;;;;20.27;10.93;;;3.00;93.20;;;;;;4994881;28;20434;-89
2021/01/05 08:59:49;;;;;;;25.48;12.88;;;3.00;93.20;;;;;;5012143;28;20054;-88
2021/01/05 09:02:15;;;;;;;24.20;13.27;;;3.10;93.20;;;;;;4975735;28;20085;-89
2021/01/05 09:04:41;;;;;;;24.80;12.43;;;3.00;93.20;;;;;;4958880;28;20031;-89
2021/01/05 09:07:07;;;;;;;27.85;14.30;;;3.10;93.20;;;;;;5004045;28;20042;-89
2021/01/05 09:09:32;;;;;;;27.92;13.88;;;3.10;93.20;;;;;;5004517;28;20046;-89
2021/01/05 09:11:59;;;;;;;22.10;11.90;;;3.10;93.10;;;;;;4975836;28;20074;-89
2021/01/05 09:14:25;;;;;;;24.77;12.57;;;3.10;93.20;;;;;;4968505;28;20039;-88
2021/01/05 09:16:58;;;;;;;25.33;13.55;;;3.10;93.10;;;;;;4957482;28;20047;-89
2021/01/05 09:19:25;;;;;;;28.58;13.90;;;3.20;93.20;;;;;;4974841;28;20048;-89
2021/01/05 09:21:51;;;;;;;26.63;13.88;;;3.10;93.10;;;;;;4963485;28;20031;-89
2021/01/05 09:24:16;;;;;;;26.60;14.15;;;3.10;93.10;;;;;;4988270;28;20395;-89
2021/01/05 09:26:42;;;;;;;27.70;15.50;;;3.10;93.10;;;;;;4974190;28;20399;-90
2021/01/05 09:29:10;;;;;;;24.40;13.95;;;3.10;93.10;;;;;;5001247;28;20497;-90
2021/01/05 09:31:41;;;;;;;25.33;14.63;;;3.10;93.10;;;;;;4978813;28;20037;-90
2021/01/05 09:34:06;;;;;;;23.20;12.95;;;3.20;93.10;;;;;;4980196;28;20023;-91
2021/01/05 09:36:36;;;;;;;24.67;14.35;;;3.10;93.00;;;;;;4980840;28;20129;-90
2021/01/05 09:39:05;;;;;;;25.40;13.50;;;3.10;93.00;;;;;;4964028;28;20075;-91
2021/01/05 09:41:35;;;;;;;25.23;14.00;;;3.10;92.90;;;;;;4966791;28;20037;-90
2021/01/05 09:44:01;;;;;;;26.38;14.80;;;3.10;92.80;;;;;;4974554;28;20042;-91
2021/01/05 09:46:27;;;;;;;24.20;14.18;;;3.20;92.90;;;;;;4972867;28;20027;-92
2021/01/05 09:48:53;;;;;;;24.17;13.63;;;3.20;92.90;;;;;;4974350;28;20050;-90
2021/01/05 09:51:30;;;;;;;27.02;14.25;;;3.20;92.90;;;;;;4973951;28;20030;-91
2021/01/05 09:53:57;;;;;;;24.25;13.82;;;3.20;92.80;;;;;;4973539;28;20102;-91
2021/01/05 09:56:23;;;;;;;23.92;13.45;;;3.30;92.80;;;;;;4974303;28;20035;-91
2021/01/05 09:58:48;;;;;;;24.33;14.57;;;3.30;92.80;;;;;;4971114;28;20388;-89
2021/01/05 10:01:22;;;;;;;23.23;12.50;;;3.30;92.70;;;;;;4971584;28;20105;-90
2021/01/05 10:03:47;;;;;;;23.73;13.70;;;3.30;92.60;;;;;;4973867;28;20042;-91
2021/01/05 10:06:12;;;;;;;23.17;13.07;;;3.30;92.50;;;;;;5002996;28;20030;-90
2021/01/05 10:08:38;;;;;;;23.63;13.13;;;3.30;92.40;;;;;;4981401;28;20162;-90
2021/01/05 10:11:04;;;;;;;21.52;13.23;;;3.30;92.30;;;;;;4993741;28;20026;-90
2021/01/05 10:13:30;;;;;;;24.02;13.50;;;3.40;92.30;;;;;;4989838;28;20097;-91
2021/01/05 10:15:55;;;;;;;20.45;11.98;;;3.30;92.20;;;;;;4989905;28;20113;-91
2021/01/05 10:18:21;;;;;;;21.13;13.30;;;3.30;92.10;;;;;;4969320;28;20023;-91
2021/01/05 10:20:48;;;;;;;20.52;11.65;;;3.30;92.10;;;;;;4987256;28;20042;-91
2021/01/05 10:23:13;;;;;;;25.95;13.40;;;3.30;92.00;;;;;;4997073;28;20050;-91
2021/01/05 10:25:39;;;;;;;21.63;13.25;;;3.30;92.00;;;;;;4976399;28;20112;-91
2021/01/05 10:28:04;;;;;;;21.52;11.88;;;3.30;92.00;;;;;;5005967;28;20030;-91
2021/01/05 10:30:30;;;;;;;26.60;14.07;;;3.30;92.00;;;;;;4970785;28;20019;-91
2021/01/05 10:32:56;;;;;;;22.15;13.02;;;3.40;92.00;;;;;;4971730;28;20043;-93
2021/01/05 10:35:23;;;;;;;24.42;13.68;;;3.40;92.00;;;;;;4992143;28;20034;-91
2021/01/05 10:37:49;;;;;;;24.80;13.63;;;3.40;92.00;;;;;;4981585;28;20033;-91
2021/01/05 10:40:19;;;;;;;20.25;11.60;;;3.40;92.00;;;;;;4973585;28;20114;-91
2021/01/05 10:42:46;;;;;;;21.10;13.13;;;3.40;92.00;;;;;;4977634;28;20078;-91
2021/01/05 10:45:14;;;;;;;22.35;13.85;;;3.40;91.90;;;;;;4973788;28;20027;-90
2021/01/05 10:47:40;;;;;;;20.95;12.77;;;3.40;91.90;;;;;;4975264;28;20019;-91
2021/01/05 10:50:09;;;;;;;19.95;11.73;;;3.30;91.80;;;;;;4984033;28;20030;-90
2021/01/05 10:52:35;;;;;;;23.63;13.50;;;3.30;91.70;;;;;;4993006;28;20030;-90
2021/01/05 10:55:01;;;;;;;20.67;12.52;;;3.30;91.70;;;;;;4991555;28;20018;-91
2021/01/05 10:57:26;;;;;;;21.60;12.25;;;3.30;91.60;;;;;;4984484;28;20043;-91
2021/01/05 10:59:52;;;;;;;17.30;11.20;;;3.30;91.70;;;;;;4984076;28;20047;-88
2021/01/05 11:02:18;;;;;;;16.65;11.07;;;3.30;91.60;;;;;;4978703;28;20125;-90
2021/01/05 11:04:44;;;;;;;15.50;9.57;;;3.30;91.60;;;;;;4980955;28;20019;-90
2021/01/05 11:07:15;;;;;;;15.75;10.45;;;3.30;91.50;;;;;;4962679;28;20039;-90
2021/01/05 11:09:41;;;;;;;15.65;9.63;;;3.30;91.50;;;;;;5002678;28;20488;-91
2021/01/05 11:12:10;;;;;;;17.30;9.80;;;3.30;91.50;;;;;;4972724;28;20081;-91
2021/01/05 11:14:36;;;;;;;14.50;9.18;;;3.30;91.50;;;;;;4971846;28;20031;-91
2021/01/05 11:17:02;;;;;;;15.73;10.57;;;3.30;91.40;;;;;;4977637;28;20049;-91
2021/01/05 11:19:28;;;;;;;16.00;10.10;;;3.30;91.40;;;;;;4977820;28;20106;-91
2021/01/05 11:21:59;;;;;;;15.18;9.80;;;3.30;91.50;;;;;;4973725;28;20030;-91
2021/01/05 11:24:26;;;;;;;15.63;9.73;;;3.30;91.50;;;;;;4985860;28;20026;-90
2021/01/05 11:26:52;;;;;;;14.98;9.52;;;3.30;91.40;;;;;;5004906;28;20086;-91
2021/01/05 11:29:18;;;;;;;15.23;8.98;;;3.30;91.40;;;;;;4978427;28;20030;-91
2021/01/05 11:31:44;;;;;;;16.23;9.13;;;3.40;91.40;;;;;;4976108;28;20104;-91
2021/01/05 11:34:10;;;;;;;16.10;10.43;;;3.30;91.30;;;;;;4982116;28;20475;-91
2021/01/05 11:36:35;;;;;;;14.93;9.65;;;3.30;91.30;;;;;;5014070;28;20039;-90
2021/01/05 11:39:03;;;;;;;15.35;9.57;;;3.40;91.30;;;;;;4976881;28;20080;-92
2021/01/05 11:41:33;;;;;;;15.20;9.52;;;3.40;91.30;;;;;;5000417;28;20023;-91
2021/01/05 11:43:59;;;;;;;14.23;9.52;;;3.40;91.30;;;;;;5006974;28;20022;-91
2021/01/05 11:46:28;;;;;;;15.00;9.63;;;3.30;91.30;;;;;;4974240;28;20117;-90
2021/01/05 11:48:55;;;;;;;13.85;8.85;;;3.40;91.60;;;;;;4975906;28;20026;-90
2021/01/05 11:51:34;;;;;;;16.70;9.55;;;3.40;91.20;;;;;;4981704;28;20481;-90
2021/01/05 11:54:00;;;;;;;15.43;9.88;;;3.40;91.20;;;;;;4993257;28;20037;-91
2021/01/05 11:56:31;;;;;;;16.02;10.15;;;3.40;91.20;;;;;;4981722;28;20034;-91
2021/01/05 11:58:58;;;;;;;15.07;8.88;;;3.40;91.30;;;;;;5009162;28;20019;-90
2021/01/05 12:01:25;;;;;;;16.52;10.50;;;3.40;91.30;;;;;;5006666;28;20498;-89
2021/01/05 12:03:50;;;;;;;14.10;9.63;;;3.40;91.30;;;;;;4976814;28;20022;-91
2021/01/05 12:06:21;;;;;;;16.30;10.80;;;3.40;91.20;;;;;;5012960;28;20109;-90
2021/01/05 12:08:48;;;;;;;16.13;10.30;;;3.40;91.30;;;;;;4978278;28;20094;-92
2021/01/05 12:11:20;;;;;;;17.13;9.85;;;3.40;91.40;;;;;;4975325;28;20022;-92
2021/01/05 12:13:46;;;;;;;18.63;11.35;;;3.40;91.40;;;;;;4978062;28;20545;-91
2021/01/05 12:16:12;;;;;;;15.73;10.10;;;3.40;91.50;;;;;;4978741;28;20102;-91
2021/01/05 12:18:38;;;;;;;18.13;10.93;;;3.50;91.50;;;;;;4978027;28;21468;-91
2021/01/05 12:21:04;;;;;;;17.35;11.07;;;3.50;91.50;;;;;;5005674;28;20030;-90
2021/01/05 12:23:33;;;;;;;17.98;10.82;;;3.50;91.50;;;;;;4977714;28;20027;-91
2021/01/05 12:25:59;;;;;;;15.82;10.02;;;3.50;91.50;;;;;;4973693;28;20026;-91
2021/01/05 12:28:25;;;;;;;17.05;11.75;;;3.50;91.50;;;;;;4973678;28;20079;-90
2021/01/05 12:30:50;;;;;;;17.38;11.13;;;3.50;91.50;;;;;;4993305;28;20105;-89
2021/01/05 12:33:16;;;;;;;17.45;10.40;;;3.50;91.50;;;;;;4996361;28;20022;-91
2021/01/05 12:35:43;;;;;;;18.95;11.60;;;3.50;91.50;;;;;;4973920;28;20022;-90
2021/01/05 12:38:09;;;;;;;16.00;9.63;;;3.50;91.90;;;;;;4989793;28;20038;-92
2021/01/05 12:40:37;;;;;;;16.15;10.82;;;3.50;91.50;;;;;;4976716;28;20034;-90
2021/01/05 12:43:03;;;;;;;16.98;10.48;;;3.50;91.50;;;;;;4977711;28;20027;-91
2021/01/05 12:45:29;;;;;;;15.32;9.80;;;3.50;91.50;;;;;;4976227;28;20049;-91
2021/01/05 12:47:54;;;;;;;18.75;12.00;;;3.50;91.60;;;;;;4991215;28;20083;-89
2021/01/05 12:50:20;;;;;;;18.90;10.85;;;3.50;91.60;;;;;;4990855;28;20035;-90
2021/01/05 12:52:47;;;;;;;17.70;11.00;;;3.50;91.60;;;;;;4991563;28;20439;-90
2021/01/05 12:55:15;;;;;;;18.63;11.20;;;3.50;91.60;;;;;;4973525;28;20487;-89